Impacts TAF Board
For situational awareness. Not to be used for flight planning purposes.
IDs:

KEGE - Eagle Cnty Rgnl, CO, US

Issued at 2320 UTC 05 Dec 2019
Updated at 0131 UTC 06 Dec 2019
Potential Impact None Slight Moderate High
Time<<06/14Z 06/15Z 06/16Z 06/17Z 06/18Z 06/19Z 06/20Z 06/21Z 06/22Z 06/23Z 07/00Z 07/01Z 07/02Z>>
Type PRVL PRVL PRVL PRVL PRVL PRVL PRVL PRVL PRVL PRVL
VIS >6 >6 >6 >6 >6 >6 >6 >6 >6 >6
CIG 250 250 250 250 250 250 -- -- -- --
Cover BKN BKN BKN BKN BKN BKN FEW FEW FEW FEW
FltCat VFR VFR VFR VFR VFR VFR VFR VFR VFR VFR
WX VCFG VCFG VCFG VCFG VCFG VCFG -- -- -- --
WDir VRB VRB VRB VRB VRB VRB 230 230 230 230
WSpd 0 0 0 0 0 0 2 2 2 2
WGst -- -- -- -- -- -- -- -- -- --
Raw TAF
KEGE 052320Z 0600/0624 VRB03KT P6SM OVC060
  FM061200 00000KT P6SM VCFG FEW010 BKN250
  FM062000 23002KT P6SM FEW250


METAR Board
Radar Display
Forecast Discussion
For situational awareness. Not to be used for flight planning purposes.